createdAt,value
2023-04-22T00:01:02.936Z,100.00
2023-04-22T00:03:32.916Z,100.00
2023-04-22T00:06:00.921Z,100.00
2023-04-22T00:08:28.617Z,100.00
2023-04-22T00:10:56.700Z,100.00
2023-04-22T00:13:24.324Z,100.00
2023-04-22T00:15:52.175Z,100.00
2023-04-22T00:18:19.779Z,100.00
2023-04-22T00:20:48.742Z,100.00
2023-04-22T00:23:16.541Z,100.00
2023-04-22T00:25:44.137Z,100.00
2023-04-22T00:28:11.956Z,100.00
2023-04-22T00:30:39.597Z,100.00
2023-04-22T00:33:07.290Z,100.00
2023-04-22T00:35:34.969Z,100.00
2023-04-22T00:38:04.073Z,100.00
2023-04-22T00:40:31.779Z,100.00
2023-04-22T00:43:00.948Z,100.00
2023-04-22T00:45:28.535Z,100.00
2023-04-22T00:47:57.101Z,100.00
2023-04-22T00:50:25.158Z,100.00
2023-04-22T00:52:52.890Z,100.00
2023-04-22T00:55:22.070Z,100.00
2023-04-22T00:57:50.282Z,100.00
2023-04-22T01:00:19.981Z,100.00
2023-04-22T01:02:48.260Z,100.00
2023-04-22T01:05:16.161Z,100.00
2023-04-22T01:07:43.737Z,100.00
2023-04-22T01:10:11.951Z,100.00
2023-04-22T01:12:40.963Z,100.00
2023-04-22T01:15:09.612Z,100.00
2023-04-22T01:17:37.369Z,100.00
2023-04-22T01:20:05.575Z,100.00
2023-04-22T01:22:37.043Z,100.00
2023-04-22T01:25:06.843Z,100.00
2023-04-22T01:27:34.451Z,100.00
2023-04-22T01:30:02.050Z,100.00
2023-04-22T01:32:30.846Z,100.00
2023-04-22T01:34:58.908Z,100.00
2023-04-22T01:37:26.987Z,100.00
2023-04-22T01:39:54.913Z,100.00
2023-04-22T01:42:24.146Z,100.00
2023-04-22T01:44:51.805Z,100.00
2023-04-22T01:47:19.436Z,100.00
2023-04-22T01:49:47.194Z,100.00
2023-04-22T01:52:14.854Z,100.00
2023-04-22T01:54:42.914Z,100.00
2023-04-22T01:57:13.821Z,100.00
2023-04-22T01:59:43.006Z,100.00
2023-04-22T02:02:10.750Z,100.00
2023-04-22T02:04:38.449Z,100.00
2023-04-22T02:07:06.068Z,100.00
2023-04-22T02:09:34.169Z,100.00
2023-04-22T02:12:01.920Z,100.00
2023-04-22T02:14:29.556Z,100.00
2023-04-22T02:16:58.734Z,100.00
2023-04-22T02:19:26.334Z,100.00
2023-04-22T02:21:53.914Z,100.00
2023-04-22T02:24:21.505Z,100.00
2023-04-22T02:26:49.094Z,100.00
2023-04-22T02:29:17.166Z,100.00
2023-04-22T02:31:44.830Z,100.00
2023-04-22T02:34:13.870Z,100.00
2023-04-22T02:36:41.424Z,100.00
2023-04-22T02:39:08.979Z,100.00
2023-04-22T02:41:36.663Z,100.00
2023-04-22T02:44:04.275Z,100.00
2023-04-22T02:46:31.903Z,100.00
2023-04-22T02:48:59.510Z,100.00
2023-04-22T02:51:29.006Z,100.00
2023-04-22T02:53:56.559Z,100.00
2023-04-22T02:56:24.113Z,100.00
2023-04-22T02:58:51.700Z,100.00
2023-04-22T03:01:19.294Z,100.00
2023-04-22T03:03:47.064Z,100.00
2023-04-22T03:06:14.755Z,100.00
2023-04-22T03:08:43.738Z,100.00
2023-04-22T03:11:11.326Z,100.00
2023-04-22T03:13:38.894Z,100.00
2023-04-22T03:16:07.512Z,100.00
2023-04-22T03:18:35.256Z,100.00
2023-04-22T03:21:02.793Z,100.00
2023-04-22T03:23:30.470Z,100.00
2023-04-22T03:25:59.367Z,100.00
2023-04-22T03:28:27.104Z,100.00
2023-04-22T03:30:54.665Z,100.00
2023-04-22T03:33:22.450Z,100.00
2023-04-22T03:35:50.367Z,100.00
2023-04-22T03:38:18.139Z,100.00
2023-04-22T03:40:45.693Z,100.00
2023-04-22T03:43:14.591Z,100.00
2023-04-22T03:45:42.772Z,100.00
2023-04-22T03:48:10.397Z,100.00
2023-04-22T03:50:38.034Z,100.00
2023-04-22T03:53:05.657Z,100.00
2023-04-22T03:55:33.250Z,100.00
2023-04-22T03:58:00.801Z,100.00
2023-04-22T04:00:29.867Z,100.00
2023-04-22T04:02:57.641Z,100.00
2023-04-22T04:05:25.453Z,100.00
2023-04-22T04:07:53.060Z,100.00
2023-04-22T04:10:20.599Z,100.00
2023-04-22T04:12:48.109Z,100.00
2023-04-22T04:15:18.879Z,100.00
2023-04-22T04:17:48.122Z,100.00
2023-04-22T04:20:16.108Z,100.00
2023-04-22T04:22:43.834Z,100.00
2023-04-22T04:25:11.766Z,100.00
2023-04-22T04:27:41.577Z,100.00
2023-04-22T04:30:10.649Z,100.00
2023-04-22T04:32:38.313Z,100.00
2023-04-22T04:35:08.437Z,100.00
2023-04-22T04:37:37.017Z,100.00
2023-04-22T04:40:05.516Z,100.00
2023-04-22T04:42:33.439Z,100.00
2023-04-22T04:45:00.970Z,100.00
2023-04-22T04:47:30.067Z,100.00
2023-04-22T04:49:58.528Z,100.00
2023-04-22T04:52:27.549Z,100.00
2023-04-22T04:54:55.108Z,100.00
2023-04-22T04:57:22.769Z,100.00
2023-04-22T04:59:50.347Z,100.00
2023-04-22T05:02:18.062Z,100.00
2023-04-22T05:04:46.682Z,100.00
2023-04-22T05:07:14.589Z,100.00
2023-04-22T05:09:43.573Z,100.00
2023-04-22T05:12:11.275Z,100.00
2023-04-22T05:14:38.805Z,100.00
2023-04-22T05:17:06.415Z,100.00
2023-04-22T05:19:34.020Z,100.00
2023-04-22T05:22:03.600Z,100.00
2023-04-22T05:24:31.364Z,100.00
2023-04-22T05:27:00.571Z,100.00
2023-04-22T05:29:28.485Z,100.00
2023-04-22T05:31:56.249Z,100.00
2023-04-22T05:34:23.875Z,100.00
2023-04-22T05:36:51.462Z,100.00
2023-04-22T05:39:19.095Z,100.00
2023-04-22T05:41:47.209Z,100.00
2023-04-22T05:44:17.587Z,100.00
2023-04-22T05:46:45.277Z,100.00
2023-04-22T05:49:12.929Z,100.00
2023-04-22T05:51:40.533Z,100.00
2023-04-22T05:54:08.110Z,100.00
2023-04-22T05:56:35.741Z,100.00
2023-04-22T05:59:03.499Z,100.00
2023-04-22T06:01:32.507Z,100.00
2023-04-22T06:04:00.223Z,100.00
2023-04-22T06:06:28.410Z,100.00
2023-04-22T06:08:56.080Z,100.00
2023-04-22T06:11:24.487Z,100.00
2023-04-22T06:13:52.787Z,100.00
2023-04-22T06:16:20.464Z,100.00
2023-04-22T06:18:49.384Z,100.00
2023-04-22T06:21:16.978Z,100.00
2023-04-22T06:23:44.818Z,100.00
2023-04-22T06:26:12.684Z,100.00
2023-04-22T06:28:40.396Z,100.00
2023-04-22T06:31:08.108Z,100.00
2023-04-22T06:33:35.817Z,100.00
2023-04-22T06:36:05.770Z,100.00
2023-04-22T06:38:33.383Z,100.00
2023-04-22T06:41:01.192Z,100.00
2023-04-22T06:43:28.767Z,100.00
2023-04-22T06:45:56.493Z,100.00
2023-04-22T06:48:24.360Z,100.00
2023-04-22T06:50:51.960Z,100.00
2023-04-22T06:53:20.959Z,100.00
2023-04-22T06:55:48.538Z,100.00
2023-04-22T06:58:16.112Z,100.00
2023-04-22T07:00:43.687Z,100.00
2023-04-22T07:03:11.621Z,100.00
2023-04-22T07:05:39.860Z,100.00
2023-04-22T07:08:07.580Z,100.00
2023-04-22T07:10:36.564Z,100.00
2023-04-22T07:13:04.141Z,100.00
2023-04-22T07:15:31.877Z,100.00
2023-04-22T07:17:59.671Z,100.00
2023-04-22T07:20:27.429Z,100.00
2023-04-22T07:22:54.906Z,100.00
2023-04-22T07:25:22.445Z,100.00
2023-04-22T07:27:51.481Z,100.00
2023-04-22T07:30:19.134Z,100.00
2023-04-22T07:32:48.763Z,100.00
2023-04-22T07:35:16.606Z,100.00
2023-04-22T07:37:44.238Z,100.00
2023-04-22T07:40:13.970Z,100.00
2023-04-22T07:42:41.616Z,99.91
2023-04-22T07:45:11.420Z,97.68
2023-04-22T07:47:38.963Z,96.48
2023-04-22T07:50:07.873Z,96.13
2023-04-22T07:52:36.286Z,96.19
2023-04-22T07:55:03.989Z,98.62
2023-04-22T07:57:32.808Z,96.90
2023-04-22T08:00:01.792Z,97.10
2023-04-22T08:02:30.761Z,95.04
2023-04-22T08:04:58.429Z,92.95
2023-04-22T08:07:33.076Z,94.17
2023-04-22T08:10:01.314Z,94.43
2023-04-22T08:12:29.043Z,91.07
2023-04-22T08:14:58.018Z,91.98
2023-04-22T08:17:25.902Z,88.96
2023-04-22T08:19:55.036Z,90.38
2023-04-22T08:22:23.784Z,89.67
2023-04-22T08:24:51.376Z,89.72
2023-04-22T08:27:19.282Z,88.47
2023-04-22T08:29:46.946Z,88.18
2023-04-22T08:32:14.604Z,87.01
2023-04-22T08:34:42.226Z,87.83
2023-04-22T08:37:11.255Z,87.13
2023-04-22T08:39:39.129Z,85.28
2023-04-22T08:42:07.152Z,84.21
2023-04-22T08:44:36.403Z,80.08
2023-04-22T08:47:04.446Z,81.13
2023-04-22T08:49:32.227Z,80.79
2023-04-22T08:51:59.822Z,81.46
2023-04-22T08:54:28.857Z,79.97
2023-04-22T08:56:56.487Z,78.72
2023-04-22T08:59:24.350Z,78.17
2023-04-22T09:01:53.865Z,78.05
2023-04-22T09:04:21.637Z,79.90
2023-04-22T09:06:49.423Z,79.41
2023-04-22T09:09:17.276Z,77.75
2023-04-22T09:11:46.308Z,77.76
2023-04-22T09:14:13.864Z,78.63
2023-04-22T09:16:43.148Z,79.83
2023-04-22T09:19:13.368Z,78.92
2023-04-22T09:21:41.673Z,78.30
2023-04-22T09:24:12.914Z,77.14
2023-04-22T09:26:42.207Z,76.67
2023-04-22T09:29:15.394Z,76.57
2023-04-22T09:31:43.179Z,75.78
2023-04-22T09:34:10.946Z,75.68
2023-04-22T09:36:38.599Z,76.03
2023-04-22T09:39:08.686Z,75.55
2023-04-22T09:41:38.589Z,76.40
2023-04-22T09:44:11.814Z,75.67
2023-04-22T09:46:43.378Z,76.44
2023-04-22T09:49:11.546Z,76.34
2023-04-22T09:51:41.918Z,75.67
2023-04-22T09:54:10.583Z,76.15
2023-04-22T09:56:45.932Z,75.62
2023-04-22T09:59:16.053Z,76.07
2023-04-22T10:01:44.038Z,74.05
2023-04-22T10:04:14.608Z,74.62
2023-04-22T10:06:42.429Z,75.22
2023-04-22T10:09:11.007Z,74.93
2023-04-22T10:11:39.199Z,72.32
2023-04-22T10:14:06.903Z,72.47
2023-04-22T10:16:36.524Z,73.74
2023-04-22T10:19:05.791Z,73.40
2023-04-22T10:21:33.879Z,73.65
2023-04-22T10:24:01.792Z,72.79
2023-04-22T10:26:43.389Z,71.79
2023-04-22T10:29:16.774Z,72.42
2023-04-22T10:31:46.798Z,71.73
2023-04-22T10:34:17.151Z,71.36
2023-04-22T10:36:59.278Z,70.21
2023-04-22T10:39:28.504Z,69.95
2023-04-22T10:42:07.294Z,70.24
2023-04-22T10:44:50.518Z,68.63
2023-04-22T10:47:30.250Z,70.21
2023-04-22T10:50:14.141Z,69.80
2023-04-22T10:52:43.230Z,69.87
2023-04-22T10:55:11.288Z,69.06
2023-04-22T10:57:41.623Z,69.81
2023-04-22T11:00:45.641Z,68.81
2023-04-22T11:03:26.966Z,68.91
2023-04-22T11:06:16.912Z,70.46
2023-04-22T11:08:48.435Z,68.82
2023-04-22T11:11:18.608Z,66.02
2023-04-22T11:13:50.311Z,67.76
2023-04-22T11:16:19.880Z,68.18
2023-04-22T11:18:49.588Z,67.62
2023-04-22T11:21:17.618Z,65.71
2023-04-22T11:23:51.063Z,66.07
2023-04-22T11:26:19.094Z,64.02
2023-04-22T11:28:47.459Z,62.04
2023-04-22T11:31:15.617Z,61.91
2023-04-22T11:33:43.774Z,60.30
2023-04-22T11:36:13.151Z,59.63
2023-04-22T11:38:41.096Z,60.80
2023-04-22T11:41:08.849Z,59.74
2023-04-22T11:43:47.241Z,60.44
2023-04-22T11:46:15.085Z,59.05
2023-04-22T11:48:42.786Z,58.84
2023-04-22T11:51:12.956Z,59.83
2023-04-22T11:53:41.374Z,60.79
2023-04-22T11:56:09.213Z,62.53
2023-04-22T11:58:40.219Z,62.47
2023-04-22T12:01:07.906Z,62.76
2023-04-22T12:03:35.660Z,63.45
2023-04-22T12:06:05.278Z,64.13
2023-04-22T12:08:36.683Z,62.85
2023-04-22T12:11:06.372Z,62.92
2023-04-22T12:13:41.540Z,63.76
2023-04-22T12:16:12.981Z,64.18
2023-04-22T12:18:42.194Z,60.20
2023-04-22T12:21:10.524Z,55.10
2023-04-22T12:23:44.298Z,54.25
2023-04-22T12:26:12.904Z,52.50
2023-04-22T12:28:41.302Z,52.77
2023-04-22T12:31:09.520Z,51.90
2023-04-22T12:33:38.612Z,53.26
2023-04-22T12:36:07.080Z,53.81
2023-04-22T12:38:35.380Z,52.50
2023-04-22T12:41:04.442Z,53.39
2023-04-22T12:43:35.335Z,52.50
2023-04-22T12:46:03.141Z,54.57
2023-04-22T12:48:31.049Z,52.80
2023-04-22T12:50:58.799Z,52.33
2023-04-22T12:53:27.696Z,53.25
2023-04-22T12:55:55.651Z,52.57
2023-04-22T12:58:25.331Z,54.36
2023-04-22T13:00:53.009Z,55.16
2023-04-22T13:03:20.895Z,55.92
2023-04-22T13:05:48.727Z,56.26
2023-04-22T13:08:16.375Z,56.02
2023-04-22T13:10:44.078Z,57.01
2023-04-22T13:15:43.678Z,58.93
2023-04-22T13:18:11.276Z,58.77
2023-04-22T13:20:39.865Z,59.12
2023-04-22T13:23:08.082Z,60.27
2023-04-22T13:25:36.104Z,59.84
2023-04-22T13:28:03.717Z,59.83
2023-04-22T13:30:31.401Z,60.97
2023-04-22T13:33:00.672Z,61.42
2023-04-22T13:35:28.636Z,61.47
2023-04-22T13:37:56.293Z,61.78
2023-04-22T13:40:24.223Z,63.08
2023-04-22T13:42:52.018Z,63.38
2023-04-22T13:45:22.155Z,63.95
2023-04-22T13:47:49.878Z,64.71
2023-04-22T13:50:19.085Z,64.88
2023-04-22T13:52:46.938Z,64.83
2023-04-22T13:55:14.577Z,64.58
2023-04-22T13:57:42.376Z,64.73
2023-04-22T14:00:11.269Z,64.46
2023-04-22T14:02:38.934Z,65.05
2023-04-22T14:05:07.567Z,65.64
2023-04-22T14:07:36.593Z,65.37
2023-04-22T14:10:05.740Z,65.71
2023-04-22T14:12:33.532Z,65.54
2023-04-22T14:15:01.188Z,65.53
2023-04-22T14:17:28.795Z,65.91
2023-04-22T14:19:56.441Z,65.85
2023-04-22T14:22:25.918Z,65.26
2023-04-22T14:24:55.692Z,65.34
2023-04-22T14:27:23.396Z,65.87
2023-04-22T14:29:52.489Z,66.15
2023-04-22T14:32:22.729Z,66.67
2023-04-22T14:34:50.572Z,66.99
2023-04-22T14:37:18.266Z,67.05
2023-04-22T14:39:45.895Z,67.21
2023-04-22T14:42:16.180Z,67.27
2023-04-22T14:44:43.980Z,67.74
2023-04-22T14:47:11.544Z,67.84
2023-04-22T14:49:39.335Z,66.89
2023-04-22T14:52:07.553Z,66.90
2023-04-22T14:54:35.257Z,67.40
2023-04-22T14:57:02.899Z,68.24
2023-04-22T14:59:31.885Z,67.65
2023-04-22T15:01:59.561Z,68.39
2023-04-22T15:04:27.574Z,68.61
2023-04-22T15:06:57.512Z,68.68
2023-04-22T15:09:25.323Z,68.58
2023-04-22T15:11:54.718Z,68.62
2023-04-22T15:14:22.290Z,69.18
2023-04-22T15:16:51.235Z,67.76
2023-04-22T15:19:18.816Z,65.77
2023-04-22T15:21:46.767Z,66.28
2023-04-22T15:24:14.354Z,65.83
2023-04-22T15:26:41.982Z,66.79
2023-04-22T15:29:09.609Z,67.22
2023-04-22T15:31:37.381Z,66.86
2023-04-22T15:34:06.538Z,67.40
2023-04-22T15:36:34.158Z,67.33
2023-04-22T15:39:03.096Z,68.04
2023-04-22T15:41:30.713Z,67.80
2023-04-22T15:43:58.435Z,68.67
2023-04-22T15:46:26.117Z,68.68
2023-04-22T15:48:53.762Z,68.68
2023-04-22T15:51:22.830Z,68.22
2023-04-22T15:53:50.524Z,68.30
2023-04-22T15:56:18.082Z,68.12
2023-04-22T15:58:45.662Z,67.80
2023-04-22T16:01:19.350Z,68.22
2023-04-22T16:03:47.877Z,68.83
2023-04-22T16:06:16.477Z,68.96
2023-04-22T16:08:45.828Z,69.22
2023-04-22T16:11:15.275Z,69.70
2023-04-22T16:13:43.158Z,69.55
2023-04-22T16:16:11.004Z,69.08
2023-04-22T16:18:38.913Z,68.93
2023-04-22T16:21:06.858Z,69.10
2023-04-22T16:23:34.764Z,69.68
2023-04-22T16:26:05.569Z,70.04
2023-04-22T16:28:33.553Z,70.16
2023-04-22T16:31:01.186Z,70.38
2023-04-22T16:33:29.003Z,71.15
2023-04-22T16:35:56.531Z,71.49
2023-04-22T16:38:24.135Z,71.47
2023-04-22T16:40:54.045Z,71.39
2023-04-22T16:43:23.025Z,71.28
2023-04-22T16:45:50.617Z,71.47
2023-04-22T16:48:18.220Z,71.54
2023-04-22T16:50:45.788Z,67.77
2023-04-22T16:53:13.295Z,66.75
2023-04-22T16:55:41.411Z,66.78
2023-04-22T16:58:09.042Z,66.39
2023-04-22T17:00:38.083Z,65.82
2023-04-22T17:03:06.133Z,65.43
2023-04-22T17:05:33.844Z,65.71
2023-04-22T17:08:01.425Z,65.96
2023-04-22T17:10:29.500Z,66.03
2023-04-22T17:12:57.103Z,65.81
2023-04-22T17:15:24.710Z,65.42
2023-04-22T17:17:53.683Z,65.77
2023-04-22T17:20:21.298Z,65.42
2023-04-22T17:22:48.862Z,65.82
2023-04-22T17:25:16.455Z,66.06
2023-04-22T17:27:43.991Z,66.80
2023-04-22T17:30:12.439Z,67.49
2023-04-22T17:32:40.020Z,66.63
2023-04-22T17:35:10.483Z,66.57
2023-04-22T17:37:38.120Z,67.10
2023-04-22T17:40:08.550Z,67.23
2023-04-22T17:42:45.832Z,67.68
2023-04-22T17:45:14.356Z,68.96
2023-04-22T17:47:41.958Z,70.76
2023-04-22T17:50:11.512Z,71.79
2023-04-22T17:52:39.103Z,73.24
2023-04-22T17:55:07.964Z,74.01
2023-04-22T17:57:37.692Z,73.97
2023-04-22T18:00:06.150Z,75.23
2023-04-22T18:02:33.977Z,75.27
2023-04-22T18:05:01.626Z,76.44
2023-04-22T18:07:30.508Z,76.68
2023-04-22T18:09:58.100Z,77.01
2023-04-22T18:12:30.407Z,77.22
2023-04-22T18:14:58.440Z,77.50
2023-04-22T18:17:26.090Z,78.41
2023-04-22T18:20:02.710Z,79.33
2023-04-22T18:22:35.613Z,79.49
2023-04-22T18:25:03.355Z,79.57
2023-04-22T18:27:31.410Z,80.64
2023-04-22T18:29:58.987Z,81.28
2023-04-22T18:32:26.609Z,81.65
2023-04-22T18:34:54.281Z,81.46
2023-04-22T18:37:21.836Z,82.42
2023-04-22T18:39:50.802Z,83.51
2023-04-22T18:42:18.409Z,83.19
2023-04-22T18:44:46.024Z,83.35
2023-04-22T18:47:13.559Z,83.66
2023-04-22T18:49:41.182Z,84.40
2023-04-22T18:52:08.880Z,84.55
2023-04-22T18:54:36.473Z,84.87
2023-04-22T18:57:05.814Z,85.13
2023-04-22T18:59:33.361Z,85.34
2023-04-22T19:02:01.143Z,87.03
2023-04-22T19:04:28.740Z,87.53
2023-04-22T19:06:56.905Z,87.50
2023-04-22T19:09:24.766Z,87.30
2023-04-22T19:11:52.345Z,87.83
2023-04-22T19:14:21.246Z,88.37
2023-04-22T19:16:48.765Z,89.04
2023-04-22T19:19:16.577Z,89.56
2023-04-22T19:21:44.286Z,89.58
2023-04-22T19:24:14.190Z,89.86
2023-04-22T19:26:42.033Z,90.36
2023-04-22T19:29:09.609Z,91.05
2023-04-22T19:31:38.606Z,91.40
2023-04-22T19:34:06.306Z,91.82
2023-04-22T19:36:33.931Z,92.12
2023-04-22T19:39:01.611Z,92.19
2023-04-22T19:41:29.216Z,92.26
2023-04-22T19:43:58.862Z,91.88
2023-04-22T19:46:26.603Z,92.71
2023-04-22T19:48:56.523Z,92.82
2023-04-22T19:51:24.242Z,92.65
2023-04-22T19:53:52.951Z,92.42
2023-04-22T19:56:20.708Z,92.10
2023-04-22T19:58:48.594Z,92.43
2023-04-22T20:01:16.599Z,93.23
2023-04-22T20:03:45.405Z,93.31
2023-04-22T20:06:15.623Z,92.52
2023-04-22T20:08:44.008Z,92.36
2023-04-22T20:11:12.612Z,92.39
2023-04-22T20:13:45.709Z,92.06
2023-04-22T20:16:15.218Z,92.25
2023-04-22T20:18:43.346Z,92.16
2023-04-22T20:21:11.285Z,93.07
2023-04-22T20:23:41.148Z,92.86
2023-04-22T20:26:09.647Z,92.37
2023-04-22T20:28:44.833Z,93.98
2023-04-22T20:31:12.783Z,94.24
2023-04-22T20:33:40.509Z,93.45
2023-04-22T20:36:08.638Z,94.92
2023-04-22T20:38:37.922Z,95.27
2023-04-22T20:41:08.453Z,95.21
2023-04-22T20:43:39.283Z,96.34
2023-04-22T20:46:07.558Z,96.98
2023-04-22T20:48:35.385Z,97.65
2023-04-22T20:51:03.345Z,98.49
2023-04-22T20:53:31.265Z,100.00
2023-04-22T20:55:58.894Z,100.00
2023-04-22T20:58:28.132Z,100.00
2023-04-22T21:00:58.601Z,100.00
2023-04-22T21:03:28.555Z,100.00
2023-04-22T21:05:57.466Z,100.00
2023-04-22T21:08:26.514Z,100.00
2023-04-22T21:10:55.766Z,100.00
2023-04-22T21:13:24.533Z,100.00
2023-04-22T21:15:57.377Z,100.00
2023-04-22T21:18:26.429Z,100.00
2023-04-22T21:20:54.928Z,100.00
2023-04-22T21:23:24.472Z,100.00
2023-04-22T21:25:54.759Z,100.00
2023-04-22T21:28:23.136Z,100.00
2023-04-22T21:30:51.428Z,100.00
2023-04-22T21:33:20.704Z,100.00
2023-04-22T21:35:48.834Z,100.00
2023-04-22T21:38:16.881Z,100.00
2023-04-22T21:40:44.772Z,100.00
2023-04-22T21:43:12.556Z,100.00
2023-04-22T21:45:40.180Z,100.00
2023-04-22T21:48:08.367Z,100.00
2023-04-22T21:50:37.671Z,100.00
2023-04-22T21:53:05.474Z,100.00
2023-04-22T21:55:33.236Z,100.00
2023-04-22T21:58:00.903Z,100.00
2023-04-22T22:00:29.043Z,100.00
2023-04-22T22:02:56.682Z,100.00
2023-04-22T22:05:24.437Z,100.00
2023-04-22T22:07:55.355Z,100.00
2023-04-22T22:10:23.576Z,100.00
2023-04-22T22:12:51.866Z,100.00
2023-04-22T22:15:19.736Z,100.00
2023-04-22T22:17:47.571Z,100.00
2023-04-22T22:20:18.005Z,100.00
2023-04-22T22:22:45.774Z,100.00
2023-04-22T22:25:17.032Z,100.00
2023-04-22T22:27:47.290Z,100.00
2023-04-22T22:30:15.620Z,100.00
2023-04-22T22:32:43.738Z,100.00
2023-04-22T22:35:11.964Z,100.00
2023-04-22T22:37:39.835Z,100.00
2023-04-22T22:40:10.369Z,100.00
2023-04-22T22:42:39.675Z,100.00
2023-04-22T22:45:08.507Z,100.00
2023-04-22T22:47:36.722Z,100.00
2023-04-22T22:50:05.043Z,100.00
2023-04-22T22:52:33.220Z,100.00
2023-04-22T22:55:01.381Z,100.00
2023-04-22T22:57:29.015Z,100.00
2023-04-22T22:59:58.053Z,100.00
2023-04-22T23:02:26.325Z,100.00
2023-04-22T23:04:54.126Z,100.00
2023-04-22T23:07:22.334Z,100.00
2023-04-22T23:09:49.948Z,100.00
2023-04-22T23:12:17.571Z,100.00
2023-04-22T23:14:45.240Z,100.00
2023-04-22T23:17:17.141Z,100.00
2023-04-22T23:19:45.310Z,100.00
2023-04-22T23:22:13.297Z,100.00
2023-04-22T23:24:42.410Z,100.00
2023-04-22T23:27:10.971Z,100.00
2023-04-22T23:29:39.864Z,100.00
2023-04-22T23:32:09.161Z,100.00
2023-04-22T23:34:41.073Z,100.00
2023-04-22T23:37:13.620Z,100.00
2023-04-22T23:39:42.403Z,100.00
2023-04-22T23:42:10.221Z,100.00
2023-04-22T23:44:38.408Z,100.00
2023-04-22T23:47:07.389Z,100.00
2023-04-22T23:49:35.339Z,100.00
2023-04-22T23:52:04.650Z,100.00
2023-04-22T23:54:32.833Z,100.00
2023-04-22T23:57:01.124Z,100.00
2023-04-22T23:59:29.307Z,100.00
